sensor_id;sensor_type;location;lat;lon;timestamp;temperature;humidity
14727;DHT22;7454;51.256;8.176;2022-08-04T00:01:20;19.50;65.40
14727;DHT22;7454;51.256;8.176;2022-08-04T00:03:54;19.40;65.30
14727;DHT22;7454;51.256;8.176;2022-08-04T00:06:33;19.60;65.60
14727;DHT22;7454;51.256;8.176;2022-08-04T00:09:15;19.50;65.50
14727;DHT22;7454;51.256;8.176;2022-08-04T00:11:45;19.40;65.50
14727;DHT22;7454;51.256;8.176;2022-08-04T00:14:14;19.50;65.50
14727;DHT22;7454;51.256;8.176;2022-08-04T00:16:42;19.50;65.60
14727;DHT22;7454;51.256;8.176;2022-08-04T00:19:31;19.40;65.60
14727;DHT22;7454;51.256;8.176;2022-08-04T00:22:03;19.50;65.70
14727;DHT22;7454;51.256;8.176;2022-08-04T00:24:52;19.40;65.60
14727;DHT22;7454;51.256;8.176;2022-08-04T00:27:21;19.40;65.70
14727;DHT22;7454;51.256;8.176;2022-08-04T00:29:47;19.40;65.60
14727;DHT22;7454;51.256;8.176;2022-08-04T00:32:13;19.30;65.60
14727;DHT22;7454;51.256;8.176;2022-08-04T00:34:40;19.20;65.60
14727;DHT22;7454;51.256;8.176;2022-08-04T00:37:06;19.20;65.70
14727;DHT22;7454;51.256;8.176;2022-08-04T00:39:32;19.20;65.70
14727;DHT22;7454;51.256;8.176;2022-08-04T00:51:07;19.10;65.70
14727;DHT22;7454;51.256;8.176;2022-08-04T00:54:02;19.10;65.70
14727;DHT22;7454;51.256;8.176;2022-08-04T01:08:26;18.90;65.70
14727;DHT22;7454;51.256;8.176;2022-08-04T01:11:27;18.80;65.70
14727;DHT22;7454;51.256;8.176;2022-08-04T01:16:52;18.80;65.90
14727;DHT22;7454;51.256;8.176;2022-08-04T01:19:59;18.70;65.70
14727;DHT22;7454;51.256;8.176;2022-08-04T01:28:00;18.70;65.70
14727;DHT22;7454;51.256;8.176;2022-08-04T01:30:38;18.70;65.80
14727;DHT22;7454;51.256;8.176;2022-08-04T01:33:08;18.70;65.80
14727;DHT22;7454;51.256;8.176;2022-08-04T01:36:03;18.70;65.70
14727;DHT22;7454;51.256;8.176;2022-08-04T01:38:35;18.70;65.80
14727;DHT22;7454;51.256;8.176;2022-08-04T01:41:09;18.70;65.80
14727;DHT22;7454;51.256;8.176;2022-08-04T01:43:41;18.70;65.80
14727;DHT22;7454;51.256;8.176;2022-08-04T01:46:14;18.70;65.70
14727;DHT22;7454;51.256;8.176;2022-08-04T01:48:46;18.60;65.70
14727;DHT22;7454;51.256;8.176;2022-08-04T01:51:12;18.60;65.80
14727;DHT22;7454;51.256;8.176;2022-08-04T01:53:40;18.60;65.80
14727;DHT22;7454;51.256;8.176;2022-08-04T01:56:09;18.60;65.80
14727;DHT22;7454;51.256;8.176;2022-08-04T01:58:37;18.50;65.80
14727;DHT22;7454;51.256;8.176;2022-08-04T02:01:06;18.40;65.80
14727;DHT22;7454;51.256;8.176;2022-08-04T02:03:34;18.40;65.80
14727;DHT22;7454;51.256;8.176;2022-08-04T02:09:09;18.40;65.80
14727;DHT22;7454;51.256;8.176;2022-08-04T02:11:40;18.30;65.90
14727;DHT22;7454;51.256;8.176;2022-08-04T02:14:22;18.30;65.80
14727;DHT22;7454;51.256;8.176;2022-08-04T02:17:14;18.20;65.80
14727;DHT22;7454;51.256;8.176;2022-08-04T02:22:41;18.20;65.90
14727;DHT22;7454;51.256;8.176;2022-08-04T02:25:21;18.20;65.80
14727;DHT22;7454;51.256;8.176;2022-08-04T02:30:59;18.10;65.90
14727;DHT22;7454;51.256;8.176;2022-08-04T02:33:38;18.10;65.90
14727;DHT22;7454;51.256;8.176;2022-08-04T02:36:15;18.10;65.80
14727;DHT22;7454;51.256;8.176;2022-08-04T02:38:54;18.00;65.90
14727;DHT22;7454;51.256;8.176;2022-08-04T02:41:24;18.00;65.90
14727;DHT22;7454;51.256;8.176;2022-08-04T02:43:55;18.00;65.80
14727;DHT22;7454;51.256;8.176;2022-08-04T02:46:26;18.00;65.80
14727;DHT22;7454;51.256;8.176;2022-08-04T02:48:53;18.00;65.90
14727;DHT22;7454;51.256;8.176;2022-08-04T02:51:32;18.00;65.80
14727;DHT22;7454;51.256;8.176;2022-08-04T02:54:00;18.00;65.90
14727;DHT22;7454;51.256;8.176;2022-08-04T02:56:30;17.90;65.80
14727;DHT22;7454;51.256;8.176;2022-08-04T02:59:08;18.00;65.90
14727;DHT22;7454;51.256;8.176;2022-08-04T03:01:37;17.90;65.80
14727;DHT22;7454;51.256;8.176;2022-08-04T03:13:26;17.80;65.90
14727;DHT22;7454;51.256;8.176;2022-08-04T03:46:26;17.60;66.20
14727;DHT22;7454;51.256;8.176;2022-08-04T03:52:12;17.60;66.20
14727;DHT22;7454;51.256;8.176;2022-08-04T04:01:57;17.50;66.10
14727;DHT22;7454;51.256;8.176;2022-08-04T04:04:45;17.40;66.00
14727;DHT22;7454;51.256;8.176;2022-08-04T04:29:50;17.30;66.10
14727;DHT22;7454;51.256;8.176;2022-08-04T04:32:55;17.40;66.10
14727;DHT22;7454;51.256;8.176;2022-08-04T04:36:10;17.30;66.20
14727;DHT22;7454;51.256;8.176;2022-08-04T04:47:48;17.40;66.20
14727;DHT22;7454;51.256;8.176;2022-08-04T04:53:49;17.40;66.20
14727;DHT22;7454;51.256;8.176;2022-08-04T04:58:52;17.50;66.30
14727;DHT22;7454;51.256;8.176;2022-08-04T05:01:44;17.50;66.30
14727;DHT22;7454;51.256;8.176;2022-08-04T05:07:44;17.50;66.30
14727;DHT22;7454;51.256;8.176;2022-08-04T05:13:43;17.60;66.30
14727;DHT22;7454;51.256;8.176;2022-08-04T05:16:26;17.60;66.20
14727;DHT22;7454;51.256;8.176;2022-08-04T05:19:27;17.60;66.20
14727;DHT22;7454;51.256;8.176;2022-08-04T05:22:11;17.70;66.20
14727;DHT22;7454;51.256;8.176;2022-08-04T05:24:59;17.80;66.30
14727;DHT22;7454;51.256;8.176;2022-08-04T05:27:36;17.70;66.30
14727;DHT22;7454;51.256;8.176;2022-08-04T05:30:06;17.80;66.40
14727;DHT22;7454;51.256;8.176;2022-08-04T05:33:06;17.80;66.30
14727;DHT22;7454;51.256;8.176;2022-08-04T05:35:39;17.90;66.40
14727;DHT22;7454;51.256;8.176;2022-08-04T05:38:19;17.90;66.40
14727;DHT22;7454;51.256;8.176;2022-08-04T05:40:48;18.00;66.40
14727;DHT22;7454;51.256;8.176;2022-08-04T05:43:15;18.00;66.40
14727;DHT22;7454;51.256;8.176;2022-08-04T05:45:43;18.10;66.60
14727;DHT22;7454;51.256;8.176;2022-08-04T05:48:20;18.10;66.50
14727;DHT22;7454;51.256;8.176;2022-08-04T05:50:47;18.10;66.80
14727;DHT22;7454;51.256;8.176;2022-08-04T05:53:14;18.20;66.80
14727;DHT22;7454;51.256;8.176;2022-08-04T05:55:41;18.20;67.00
14727;DHT22;7454;51.256;8.176;2022-08-04T05:58:08;18.30;67.00
14727;DHT22;7454;51.256;8.176;2022-08-04T06:00:34;18.40;67.00
14727;DHT22;7454;51.256;8.176;2022-08-04T06:03:03;18.40;67.00
14727;DHT22;7454;51.256;8.176;2022-08-04T06:05:29;18.50;66.80
14727;DHT22;7454;51.256;8.176;2022-08-04T06:07:55;18.60;66.80
14727;DHT22;7454;51.256;8.176;2022-08-04T06:10:22;18.70;67.00
14727;DHT22;7454;51.256;8.176;2022-08-04T06:12:57;18.70;66.90
14727;DHT22;7454;51.256;8.176;2022-08-04T06:15:27;18.70;66.80
14727;DHT22;7454;51.256;8.176;2022-08-04T06:18:01;18.80;66.90
14727;DHT22;7454;51.256;8.176;2022-08-04T06:20:33;18.90;67.00
14727;DHT22;7454;51.256;8.176;2022-08-04T06:23:05;18.90;66.90
14727;DHT22;7454;51.256;8.176;2022-08-04T06:25:38;19.00;67.00
14727;DHT22;7454;51.256;8.176;2022-08-04T06:28:09;19.10;67.00
14727;DHT22;7454;51.256;8.176;2022-08-04T06:30:36;19.10;67.00
14727;DHT22;7454;51.256;8.176;2022-08-04T06:33:03;19.20;67.20
14727;DHT22;7454;51.256;8.176;2022-08-04T06:35:38;19.30;67.20
14727;DHT22;7454;51.256;8.176;2022-08-04T06:38:05;19.30;67.20
14727;DHT22;7454;51.256;8.176;2022-08-04T06:40:33;19.40;67.10
14727;DHT22;7454;51.256;8.176;2022-08-04T06:43:06;19.50;67.10
14727;DHT22;7454;51.256;8.176;2022-08-04T06:45:34;19.50;67.00
14727;DHT22;7454;51.256;8.176;2022-08-04T06:48:04;19.60;67.30
14727;DHT22;7454;51.256;8.176;2022-08-04T06:50:34;19.70;67.10
14727;DHT22;7454;51.256;8.176;2022-08-04T06:53:01;19.70;67.30
14727;DHT22;7454;51.256;8.176;2022-08-04T06:55:28;19.90;67.20
14727;DHT22;7454;51.256;8.176;2022-08-04T06:57:54;19.90;67.50
14727;DHT22;7454;51.256;8.176;2022-08-04T07:00:20;20.00;67.20
14727;DHT22;7454;51.256;8.176;2022-08-04T07:02:50;20.10;67.50
14727;DHT22;7454;51.256;8.176;2022-08-04T07:05:17;20.20;67.40
14727;DHT22;7454;51.256;8.176;2022-08-04T07:07:44;20.30;67.30
14727;DHT22;7454;51.256;8.176;2022-08-04T07:10:11;20.40;67.40
14727;DHT22;7454;51.256;8.176;2022-08-04T07:12:39;20.50;67.40
14727;DHT22;7454;51.256;8.176;2022-08-04T07:15:07;20.70;67.60
14727;DHT22;7454;51.256;8.176;2022-08-04T07:17:37;20.80;67.40
14727;DHT22;7454;51.256;8.176;2022-08-04T07:20:04;21.00;67.50
14727;DHT22;7454;51.256;8.176;2022-08-04T07:22:32;21.10;67.50
14727;DHT22;7454;51.256;8.176;2022-08-04T07:24:59;21.20;67.50
14727;DHT22;7454;51.256;8.176;2022-08-04T07:27:26;21.20;67.40
14727;DHT22;7454;51.256;8.176;2022-08-04T07:29:52;21.40;67.40
14727;DHT22;7454;51.256;8.176;2022-08-04T07:32:21;21.50;67.10
14727;DHT22;7454;51.256;8.176;2022-08-04T07:34:50;21.50;67.60
14727;DHT22;7454;51.256;8.176;2022-08-04T07:37:16;21.60;67.20
14727;DHT22;7454;51.256;8.176;2022-08-04T07:39:44;21.70;67.30
14727;DHT22;7454;51.256;8.176;2022-08-04T07:42:10;21.90;67.40
14727;DHT22;7454;51.256;8.176;2022-08-04T07:44:36;22.00;67.00
14727;DHT22;7454;51.256;8.176;2022-08-04T07:47:05;22.10;67.10
14727;DHT22;7454;51.256;8.176;2022-08-04T07:49:32;22.20;67.30
14727;DHT22;7454;51.256;8.176;2022-08-04T07:51:59;22.20;66.90
14727;DHT22;7454;51.256;8.176;2022-08-04T07:54:26;22.40;67.50
14727;DHT22;7454;51.256;8.176;2022-08-04T07:56:52;22.50;67.20
14727;DHT22;7454;51.256;8.176;2022-08-04T07:59:18;22.60;66.90
14727;DHT22;7454;51.256;8.176;2022-08-04T08:01:45;22.70;66.80
14727;DHT22;7454;51.256;8.176;2022-08-04T08:04:13;22.90;66.20
14727;DHT22;7454;51.256;8.176;2022-08-04T08:06:40;23.00;66.20
14727;DHT22;7454;51.256;8.176;2022-08-04T08:09:10;23.20;66.50
14727;DHT22;7454;51.256;8.176;2022-08-04T08:11:38;23.30;66.10
14727;DHT22;7454;51.256;8.176;2022-08-04T08:14:04;23.40;66.40
14727;DHT22;7454;51.256;8.176;2022-08-04T08:16:36;23.50;66.20
14727;DHT22;7454;51.256;8.176;2022-08-04T08:19:03;23.60;66.10
14727;DHT22;7454;51.256;8.176;2022-08-04T08:21:30;23.80;66.00
14727;DHT22;7454;51.256;8.176;2022-08-04T08:23:57;23.90;65.80
14727;DHT22;7454;51.256;8.176;2022-08-04T08:26:23;24.00;65.20
14727;DHT22;7454;51.256;8.176;2022-08-04T08:28:50;24.10;65.60
14727;DHT22;7454;51.256;8.176;2022-08-04T08:31:16;24.30;65.00
14727;DHT22;7454;51.256;8.176;2022-08-04T08:33:42;24.40;65.20
14727;DHT22;7454;51.256;8.176;2022-08-04T08:36:23;24.50;65.10
14727;DHT22;7454;51.256;8.176;2022-08-04T08:48:31;24.80;63.90
14727;DHT22;7454;51.256;8.176;2022-08-04T09:00:19;25.00;63.60
14727;DHT22;7454;51.256;8.176;2022-08-04T09:18:01;25.20;63.20
14727;DHT22;7454;51.256;8.176;2022-08-04T09:20:38;25.30;63.10
14727;DHT22;7454;51.256;8.176;2022-08-04T09:26:08;25.50;62.50
14727;DHT22;7454;51.256;8.176;2022-08-04T09:31:45;25.50;62.20
14727;DHT22;7454;51.256;8.176;2022-08-04T09:44:14;25.90;62.10
14727;DHT22;7454;51.256;8.176;2022-08-04T09:46:56;26.00;62.00
14727;DHT22;7454;51.256;8.176;2022-08-04T09:49:39;26.10;61.80
14727;DHT22;7454;51.256;8.176;2022-08-04T09:52:16;26.20;62.10
14727;DHT22;7454;51.256;8.176;2022-08-04T10:01:32;26.20;62.30
14727;DHT22;7454;51.256;8.176;2022-08-04T10:04:06;26.20;62.20
14727;DHT22;7454;51.256;8.176;2022-08-04T10:09:42;26.30;61.90
14727;DHT22;7454;51.256;8.176;2022-08-04T10:12:16;26.30;62.10
14727;DHT22;7454;51.256;8.176;2022-08-04T10:20:29;26.60;61.80
14727;DHT22;7454;51.256;8.176;2022-08-04T10:28:55;26.80;61.20
14727;DHT22;7454;51.256;8.176;2022-08-04T10:31:34;26.90;61.50
14727;DHT22;7454;51.256;8.176;2022-08-04T10:34:12;27.00;61.40
14727;DHT22;7454;51.256;8.176;2022-08-04T10:37:03;27.00;61.40
14727;DHT22;7454;51.256;8.176;2022-08-04T10:39:45;27.10;61.40
14727;DHT22;7454;51.256;8.176;2022-08-04T10:42:39;27.10;61.30
14727;DHT22;7454;51.256;8.176;2022-08-04T10:46:01;27.10;61.40
14727;DHT22;7454;51.256;8.176;2022-08-04T10:54:09;27.30;61.00
14727;DHT22;7454;51.256;8.176;2022-08-04T10:56:42;27.40;61.10
14727;DHT22;7454;51.256;8.176;2022-08-04T10:59:27;27.50;60.70
14727;DHT22;7454;51.256;8.176;2022-08-04T11:02:00;27.70;60.80
14727;DHT22;7454;51.256;8.176;2022-08-04T11:07:41;27.90;60.60
14727;DHT22;7454;51.256;8.176;2022-08-04T11:10:09;27.90;60.60
14727;DHT22;7454;51.256;8.176;2022-08-04T11:12:37;27.90;60.80
14727;DHT22;7454;51.256;8.176;2022-08-04T11:15:19;27.90;61.00
14727;DHT22;7454;51.256;8.176;2022-08-04T11:17:58;27.90;60.90
14727;DHT22;7454;51.256;8.176;2022-08-04T11:20:40;27.90;60.80
14727;DHT22;7454;51.256;8.176;2022-08-04T11:23:10;28.00;60.70
14727;DHT22;7454;51.256;8.176;2022-08-04T11:25:58;28.00;60.40
14727;DHT22;7454;51.256;8.176;2022-08-04T11:28:58;28.10;60.40
14727;DHT22;7454;51.256;8.176;2022-08-04T11:31:35;28.20;60.30
14727;DHT22;7454;51.256;8.176;2022-08-04T11:40:10;28.50;60.10
14727;DHT22;7454;51.256;8.176;2022-08-04T11:42:57;28.60;60.00
14727;DHT22;7454;51.256;8.176;2022-08-04T11:45:41;28.70;58.20
14727;DHT22;7454;51.256;8.176;2022-08-04T11:50:46;28.60;59.20
14727;DHT22;7454;51.256;8.176;2022-08-04T11:53:19;28.60;60.00
14727;DHT22;7454;51.256;8.176;2022-08-04T11:55:50;28.60;60.10
14727;DHT22;7454;51.256;8.176;2022-08-04T11:58:19;28.50;60.20
14727;DHT22;7454;51.256;8.176;2022-08-04T12:01:10;28.50;60.00
14727;DHT22;7454;51.256;8.176;2022-08-04T12:12:27;28.80;60.30
14727;DHT22;7454;51.256;8.176;2022-08-04T12:17:53;29.00;60.50
14727;DHT22;7454;51.256;8.176;2022-08-04T12:20:27;29.00;60.10
14727;DHT22;7454;51.256;8.176;2022-08-04T12:22:54;29.10;59.60
14727;DHT22;7454;51.256;8.176;2022-08-04T12:25:33;29.20;58.70
14727;DHT22;7454;51.256;8.176;2022-08-04T12:28:07;29.30;59.10
14727;DHT22;7454;51.256;8.176;2022-08-04T12:30:41;29.30;57.30
14727;DHT22;7454;51.256;8.176;2022-08-04T12:33:21;29.40;57.00
14727;DHT22;7454;51.256;8.176;2022-08-04T12:35:58;29.40;56.80
14727;DHT22;7454;51.256;8.176;2022-08-04T12:38:31;29.50;57.20
14727;DHT22;7454;51.256;8.176;2022-08-04T12:41:00;29.60;59.20
14727;DHT22;7454;51.256;8.176;2022-08-04T12:43:40;29.70;59.50
14727;DHT22;7454;51.256;8.176;2022-08-04T12:46:09;29.80;60.00
14727;DHT22;7454;51.256;8.176;2022-08-04T12:48:37;29.80;60.00
14727;DHT22;7454;51.256;8.176;2022-08-04T12:51:08;30.00;59.70
14727;DHT22;7454;51.256;8.176;2022-08-04T12:53:38;30.00;60.00
14727;DHT22;7454;51.256;8.176;2022-08-04T12:56:07;30.10;58.30
14727;DHT22;7454;51.256;8.176;2022-08-04T12:58:46;30.10;59.40
14727;DHT22;7454;51.256;8.176;2022-08-04T13:01:19;30.10;58.30
14727;DHT22;7454;51.256;8.176;2022-08-04T13:03:54;30.00;59.90
14727;DHT22;7454;51.256;8.176;2022-08-04T13:06:34;30.00;58.60
14727;DHT22;7454;51.256;8.176;2022-08-04T13:09:25;29.90;57.40
14727;DHT22;7454;51.256;8.176;2022-08-04T13:12:01;29.80;56.20
14727;DHT22;7454;51.256;8.176;2022-08-04T13:14:34;29.90;56.50
14727;DHT22;7454;51.256;8.176;2022-08-04T13:17:02;29.80;57.30
14727;DHT22;7454;51.256;8.176;2022-08-04T13:19:30;29.70;56.80
14727;DHT22;7454;51.256;8.176;2022-08-04T13:21:57;29.80;55.60
14727;DHT22;7454;51.256;8.176;2022-08-04T13:24:25;29.80;56.20
14727;DHT22;7454;51.256;8.176;2022-08-04T13:27:02;29.80;55.20
14727;DHT22;7454;51.256;8.176;2022-08-04T13:29:38;29.80;56.10
14727;DHT22;7454;51.256;8.176;2022-08-04T13:32:05;29.80;57.50
14727;DHT22;7454;51.256;8.176;2022-08-04T13:34:33;29.80;56.60
14727;DHT22;7454;51.256;8.176;2022-08-04T13:37:02;29.90;55.00
14727;DHT22;7454;51.256;8.176;2022-08-04T13:39:29;29.90;55.80
14727;DHT22;7454;51.256;8.176;2022-08-04T13:41:59;29.90;55.40
14727;DHT22;7454;51.256;8.176;2022-08-04T13:44:33;29.80;55.90
14727;DHT22;7454;51.256;8.176;2022-08-04T13:47:11;29.70;55.90
14727;DHT22;7454;51.256;8.176;2022-08-04T13:50:26;29.60;57.20
14727;DHT22;7454;51.256;8.176;2022-08-04T13:52:55;29.50;57.20
14727;DHT22;7454;51.256;8.176;2022-08-04T13:55:33;29.40;56.00
14727;DHT22;7454;51.256;8.176;2022-08-04T13:58:04;29.40;57.00
14727;DHT22;7454;51.256;8.176;2022-08-04T14:01:04;29.30;56.50
14727;DHT22;7454;51.256;8.176;2022-08-04T14:03:40;29.20;57.20
14727;DHT22;7454;51.256;8.176;2022-08-04T14:09:02;29.20;60.20
14727;DHT22;7454;51.256;8.176;2022-08-04T14:11:43;29.10;58.90
14727;DHT22;7454;51.256;8.176;2022-08-04T14:14:25;29.10;60.20
14727;DHT22;7454;51.256;8.176;2022-08-04T14:17:05;29.10;60.10
14727;DHT22;7454;51.256;8.176;2022-08-04T14:25:14;29.10;59.50
14727;DHT22;7454;51.256;8.176;2022-08-04T14:33:04;29.30;60.20
14727;DHT22;7454;51.256;8.176;2022-08-04T14:35:36;29.40;59.80
14727;DHT22;7454;51.256;8.176;2022-08-04T14:38:08;29.40;60.20
14727;DHT22;7454;51.256;8.176;2022-08-04T14:40:38;29.40;60.20
14727;DHT22;7454;51.256;8.176;2022-08-04T14:43:06;29.50;60.50
14727;DHT22;7454;51.256;8.176;2022-08-04T14:45:41;29.50;60.60
14727;DHT22;7454;51.256;8.176;2022-08-04T14:48:13;29.60;60.70
14727;DHT22;7454;51.256;8.176;2022-08-04T14:50:40;29.60;61.00
14727;DHT22;7454;51.256;8.176;2022-08-04T14:53:21;29.60;60.90
14727;DHT22;7454;51.256;8.176;2022-08-04T14:55:57;29.60;61.10
14727;DHT22;7454;51.256;8.176;2022-08-04T14:58:29;29.50;61.00
14727;DHT22;7454;51.256;8.176;2022-08-04T15:00:59;29.60;61.10
14727;DHT22;7454;51.256;8.176;2022-08-04T15:03:27;29.60;61.10
14727;DHT22;7454;51.256;8.176;2022-08-04T15:05:56;29.40;61.00
14727;DHT22;7454;51.256;8.176;2022-08-04T15:08:24;29.40;61.10
14727;DHT22;7454;51.256;8.176;2022-08-04T15:10:50;29.40;61.30
14727;DHT22;7454;51.256;8.176;2022-08-04T15:13:26;29.30;61.40
14727;DHT22;7454;51.256;8.176;2022-08-04T15:15:52;29.30;61.20
14727;DHT22;7454;51.256;8.176;2022-08-04T15:18:18;29.20;61.00
14727;DHT22;7454;51.256;8.176;2022-08-04T15:20:45;29.20;61.10
14727;DHT22;7454;51.256;8.176;2022-08-04T15:23:11;29.20;61.20
14727;DHT22;7454;51.256;8.176;2022-08-04T15:25:51;29.20;61.30
14727;DHT22;7454;51.256;8.176;2022-08-04T15:28:20;29.10;61.30
14727;DHT22;7454;51.256;8.176;2022-08-04T15:30:48;29.10;61.30
14727;DHT22;7454;51.256;8.176;2022-08-04T15:33:16;29.00;61.30
14727;DHT22;7454;51.256;8.176;2022-08-04T15:35:50;29.00;61.30
14727;DHT22;7454;51.256;8.176;2022-08-04T15:38:31;28.90;61.30
14727;DHT22;7454;51.256;8.176;2022-08-04T15:41:30;28.90;61.20
14727;DHT22;7454;51.256;8.176;2022-08-04T15:47:10;28.70;61.30
14727;DHT22;7454;51.256;8.176;2022-08-04T15:49:37;28.60;61.30
14727;DHT22;7454;51.256;8.176;2022-08-04T15:52:09;28.60;61.40
14727;DHT22;7454;51.256;8.176;2022-08-04T15:54:36;28.40;61.40
14727;DHT22;7454;51.256;8.176;2022-08-04T15:57:04;28.40;61.50
14727;DHT22;7454;51.256;8.176;2022-08-04T16:08:07;28.50;61.70
14727;DHT22;7454;51.256;8.176;2022-08-04T16:10:43;28.50;61.90
14727;DHT22;7454;51.256;8.176;2022-08-04T16:13:18;28.50;61.90
14727;DHT22;7454;51.256;8.176;2022-08-04T16:15:52;28.40;61.90
14727;DHT22;7454;51.256;8.176;2022-08-04T16:20:55;28.30;62.10
14727;DHT22;7454;51.256;8.176;2022-08-04T16:32:17;28.10;62.10
14727;DHT22;7454;51.256;8.176;2022-08-04T16:34:47;28.00;62.10
14727;DHT22;7454;51.256;8.176;2022-08-04T16:37:33;28.00;62.20
14727;DHT22;7454;51.256;8.176;2022-08-04T16:48:13;27.90;62.20
14727;DHT22;7454;51.256;8.176;2022-08-04T16:51:09;27.90;62.30
14727;DHT22;7454;51.256;8.176;2022-08-04T16:53:42;27.90;62.40
14727;DHT22;7454;51.256;8.176;2022-08-04T16:56:10;27.80;62.30
14727;DHT22;7454;51.256;8.176;2022-08-04T16:58:39;27.80;62.30
14727;DHT22;7454;51.256;8.176;2022-08-04T17:01:11;27.70;62.20
14727;DHT22;7454;51.256;8.176;2022-08-04T17:03:39;27.60;62.20
14727;DHT22;7454;51.256;8.176;2022-08-04T17:06:11;27.60;62.30
14727;DHT22;7454;51.256;8.176;2022-08-04T17:08:39;27.50;62.40
14727;DHT22;7454;51.256;8.176;2022-08-04T17:11:06;27.50;62.40
14727;DHT22;7454;51.256;8.176;2022-08-04T17:13:42;27.40;62.40
14727;DHT22;7454;51.256;8.176;2022-08-04T17:16:12;27.40;62.50
14727;DHT22;7454;51.256;8.176;2022-08-04T17:18:44;27.30;62.50
14727;DHT22;7454;51.256;8.176;2022-08-04T17:21:15;27.20;62.40
14727;DHT22;7454;51.256;8.176;2022-08-04T17:23:47;27.20;62.50
14727;DHT22;7454;51.256;8.176;2022-08-04T17:26:18;27.10;62.50
14727;DHT22;7454;51.256;8.176;2022-08-04T17:28:48;27.10;62.50
14727;DHT22;7454;51.256;8.176;2022-08-04T17:31:22;27.00;62.50
14727;DHT22;7454;51.256;8.176;2022-08-04T17:33:54;26.90;62.50
14727;DHT22;7454;51.256;8.176;2022-08-04T17:36:22;26.80;62.60
14727;DHT22;7454;51.256;8.176;2022-08-04T17:38:55;26.80;62.50
14727;DHT22;7454;51.256;8.176;2022-08-04T17:41:25;26.80;62.70
14727;DHT22;7454;51.256;8.176;2022-08-04T17:43:53;26.70;62.50
14727;DHT22;7454;51.256;8.176;2022-08-04T17:46:39;26.70;62.60
14727;DHT22;7454;51.256;8.176;2022-08-04T17:49:18;26.70;62.60
14727;DHT22;7454;51.256;8.176;2022-08-04T17:54:16;26.50;63.00
14727;DHT22;7454;51.256;8.176;2022-08-04T17:56:49;26.40;63.00
14727;DHT22;7454;51.256;8.176;2022-08-04T18:07:22;26.10;63.40
14727;DHT22;7454;51.256;8.176;2022-08-04T18:09:55;26.00;63.40
14727;DHT22;7454;51.256;8.176;2022-08-04T18:12:39;26.00;63.60
14727;DHT22;7454;51.256;8.176;2022-08-04T18:15:20;25.80;63.70
14727;DHT22;7454;51.256;8.176;2022-08-04T18:17:47;25.70;64.00
14727;DHT22;7454;51.256;8.176;2022-08-04T18:20:18;25.60;63.90
14727;DHT22;7454;51.256;8.176;2022-08-04T18:22:46;25.50;64.00
14727;DHT22;7454;51.256;8.176;2022-08-04T18:25:14;25.30;63.90
14727;DHT22;7454;51.256;8.176;2022-08-04T18:27:47;25.20;63.80
14727;DHT22;7454;51.256;8.176;2022-08-04T18:30:15;25.20;63.90
14727;DHT22;7454;51.256;8.176;2022-08-04T18:32:41;25.10;63.90
14727;DHT22;7454;51.256;8.176;2022-08-04T18:35:07;25.00;63.70
14727;DHT22;7454;51.256;8.176;2022-08-04T18:37:35;25.00;63.90
14727;DHT22;7454;51.256;8.176;2022-08-04T18:40:03;25.00;63.90
14727;DHT22;7454;51.256;8.176;2022-08-04T18:42:34;24.90;63.90
14727;DHT22;7454;51.256;8.176;2022-08-04T18:45:00;24.90;64.00
14727;DHT22;7454;51.256;8.176;2022-08-04T18:47:27;24.80;63.90
14727;DHT22;7454;51.256;8.176;2022-08-04T18:49:53;24.80;64.10
14727;DHT22;7454;51.256;8.176;2022-08-04T18:52:20;24.80;64.00
14727;DHT22;7454;51.256;8.176;2022-08-04T18:54:46;24.80;64.10
14727;DHT22;7454;51.256;8.176;2022-08-04T18:57:20;24.80;64.10
14727;DHT22;7454;51.256;8.176;2022-08-04T18:59:47;24.80;64.20
14727;DHT22;7454;51.256;8.176;2022-08-04T19:02:13;24.80;64.30
14727;DHT22;7454;51.256;8.176;2022-08-04T19:04:40;24.80;64.30
14727;DHT22;7454;51.256;8.176;2022-08-04T19:07:08;24.70;64.40
14727;DHT22;7454;51.256;8.176;2022-08-04T19:09:34;24.70;64.60
14727;DHT22;7454;51.256;8.176;2022-08-04T19:12:00;24.60;64.90
14727;DHT22;7454;51.256;8.176;2022-08-04T19:14:26;24.70;64.90
14727;DHT22;7454;51.256;8.176;2022-08-04T19:16:51;24.50;65.00
14727;DHT22;7454;51.256;8.176;2022-08-04T19:19:17;24.40;65.00
14727;DHT22;7454;51.256;8.176;2022-08-04T19:21:44;24.40;64.70
14727;DHT22;7454;51.256;8.176;2022-08-04T19:24:11;24.40;64.70
14727;DHT22;7454;51.256;8.176;2022-08-04T19:26:38;24.40;64.70
14727;DHT22;7454;51.256;8.176;2022-08-04T19:29:04;24.40;64.70
14727;DHT22;7454;51.256;8.176;2022-08-04T19:31:30;24.40;64.90
14727;DHT22;7454;51.256;8.176;2022-08-04T19:33:56;24.40;65.10
14727;DHT22;7454;51.256;8.176;2022-08-04T19:36:23;24.20;65.40
14727;DHT22;7454;51.256;8.176;2022-08-04T19:38:52;24.20;65.40
14727;DHT22;7454;51.256;8.176;2022-08-04T19:41:18;24.30;65.50
14727;DHT22;7454;51.256;8.176;2022-08-04T19:43:44;24.10;66.00
14727;DHT22;7454;51.256;8.176;2022-08-04T19:46:12;24.10;66.90
14727;DHT22;7454;51.256;8.176;2022-08-04T19:48:39;23.70;66.90
14727;DHT22;7454;51.256;8.176;2022-08-04T19:51:06;23.70;66.70
14727;DHT22;7454;51.256;8.176;2022-08-04T19:53:32;23.50;66.50
14727;DHT22;7454;51.256;8.176;2022-08-04T19:55:58;23.60;67.20
14727;DHT22;7454;51.256;8.176;2022-08-04T19:58:25;23.50;67.40
14727;DHT22;7454;51.256;8.176;2022-08-04T20:00:52;23.40;67.40
14727;DHT22;7454;51.256;8.176;2022-08-04T20:03:18;23.40;67.50
14727;DHT22;7454;51.256;8.176;2022-08-04T20:05:44;23.40;67.50
14727;DHT22;7454;51.256;8.176;2022-08-04T20:08:10;23.40;67.50
14727;DHT22;7454;51.256;8.176;2022-08-04T20:10:37;23.40;67.60
14727;DHT22;7454;51.256;8.176;2022-08-04T20:13:04;23.30;67.60
14727;DHT22;7454;51.256;8.176;2022-08-04T20:15:30;23.10;67.60
14727;DHT22;7454;51.256;8.176;2022-08-04T20:17:57;23.30;68.10
14727;DHT22;7454;51.256;8.176;2022-08-04T20:20:23;23.10;68.10
14727;DHT22;7454;51.256;8.176;2022-08-04T20:22:48;23.10;68.10
14727;DHT22;7454;51.256;8.176;2022-08-04T20:25:14;23.10;68.20
14727;DHT22;7454;51.256;8.176;2022-08-04T20:27:40;23.20;67.80
14727;DHT22;7454;51.256;8.176;2022-08-04T20:30:07;23.00;67.60
14727;DHT22;7454;51.256;8.176;2022-08-04T20:32:33;23.00;67.60
14727;DHT22;7454;51.256;8.176;2022-08-04T20:34:59;22.90;67.80
14727;DHT22;7454;51.256;8.176;2022-08-04T20:37:28;23.00;68.20
14727;DHT22;7454;51.256;8.176;2022-08-04T20:39:59;22.90;68.20
14727;DHT22;7454;51.256;8.176;2022-08-04T20:42:28;22.80;68.50
14727;DHT22;7454;51.256;8.176;2022-08-04T20:44:57;22.90;68.30
14727;DHT22;7454;51.256;8.176;2022-08-04T20:47:30;23.00;67.90
14727;DHT22;7454;51.256;8.176;2022-08-04T20:49:56;23.00;67.30
14727;DHT22;7454;51.256;8.176;2022-08-04T20:52:22;22.90;67.50
14727;DHT22;7454;51.256;8.176;2022-08-04T20:54:47;22.90;67.60
14727;DHT22;7454;51.256;8.176;2022-08-04T20:57:13;22.80;67.50
14727;DHT22;7454;51.256;8.176;2022-08-04T20:59:39;22.90;67.60
14727;DHT22;7454;51.256;8.176;2022-08-04T21:02:05;22.80;67.30
14727;DHT22;7454;51.256;8.176;2022-08-04T21:04:31;22.80;67.40
14727;DHT22;7454;51.256;8.176;2022-08-04T21:07:03;22.80;67.30